createdAt,value
2024-05-09T00:00:42.070Z,10.10
2024-05-09T00:03:29.943Z,9.20
2024-05-09T00:05:57.721Z,9.10
2024-05-09T00:08:25.295Z,10.50
2024-05-09T00:10:53.062Z,9.60
2024-05-09T00:13:20.804Z,9.60
2024-05-09T00:15:48.355Z,8.40
2024-05-09T00:18:16.078Z,9.20
2024-05-09T00:20:43.798Z,9.70
2024-05-09T00:23:13.507Z,9.10
2024-05-09T00:25:44.963Z,8.60
2024-05-09T00:30:41.196Z,8.20
2024-05-09T00:33:10.339Z,8.20
2024-05-09T00:35:39.610Z,7.00
2024-05-09T00:38:07.663Z,7.70
2024-05-09T00:40:41.697Z,7.90
2024-05-09T00:43:11.961Z,7.70
2024-05-09T00:45:40.497Z,7.70
2024-05-09T00:48:10.433Z,8.00
2024-05-09T00:50:40.623Z,8.10
2024-05-09T00:53:12.950Z,7.70
2024-05-09T00:55:40.746Z,8.80
2024-05-09T00:58:09.870Z,7.90
2024-05-09T01:00:40.133Z,9.10
2024-05-09T01:03:11.653Z,8.50
2024-05-09T01:05:42.184Z,9.00
2024-05-09T01:08:10.947Z,9.60
2024-05-09T01:10:39.524Z,9.10
2024-05-09T01:13:07.944Z,8.90
2024-05-09T01:15:35.888Z,9.00
2024-05-09T01:18:06.652Z,8.20
2024-05-09T01:20:41.281Z,9.10
2024-05-09T01:23:12.489Z,8.20
2024-05-09T01:25:41.141Z,8.20
2024-05-09T01:28:08.707Z,9.90
2024-05-09T01:30:37.757Z,8.20
2024-05-09T01:33:08.107Z,9.10
2024-05-09T01:35:38.415Z,7.60
2024-05-09T01:38:06.479Z,8.50
2024-05-09T01:40:38.500Z,8.40
2024-05-09T01:43:09.053Z,7.60
2024-05-09T01:45:38.042Z,8.10
2024-05-09T01:48:05.991Z,7.30
2024-05-09T01:50:38.700Z,7.00
2024-05-09T01:53:10.288Z,8.30
2024-05-09T01:55:38.330Z,7.30
2024-05-09T01:58:05.942Z,7.60
2024-05-09T02:00:39.114Z,7.90
2024-05-09T02:03:12.061Z,7.50
2024-05-09T02:05:43.159Z,7.90
2024-05-09T02:08:17.967Z,8.10
2024-05-09T02:10:47.620Z,8.10
2024-05-09T02:13:15.823Z,8.10
2024-05-09T02:15:44.246Z,7.40
2024-05-09T02:18:12.407Z,7.10
2024-05-09T02:20:42.277Z,7.00
2024-05-09T02:23:10.818Z,7.10
2024-05-09T02:25:38.363Z,7.10
2024-05-09T02:28:05.911Z,7.30
2024-05-09T02:30:39.654Z,6.90
2024-05-09T02:33:11.930Z,8.10
2024-05-09T02:35:42.308Z,7.00
2024-05-09T02:38:10.610Z,7.20
2024-05-09T02:40:39.665Z,8.00
2024-05-09T02:43:10.217Z,7.20
2024-05-09T02:45:39.967Z,7.10
2024-05-09T02:48:12.785Z,7.30
2024-05-09T02:50:41.612Z,7.10
2024-05-09T02:53:14.030Z,7.50
2024-05-09T02:55:42.227Z,7.20
2024-05-09T02:58:10.555Z,7.10
2024-05-09T03:00:41.415Z,7.30
2024-05-09T03:03:13.342Z,7.70
2024-05-09T03:05:44.400Z,7.30
2024-05-09T03:08:12.521Z,6.90
2024-05-09T03:10:40.513Z,7.10
2024-05-09T03:13:09.160Z,7.00
2024-05-09T03:15:37.205Z,7.40
2024-05-09T03:18:08.488Z,7.90
2024-05-09T03:20:37.062Z,7.20
2024-05-09T03:23:06.316Z,7.60
2024-05-09T03:25:34.442Z,7.30
2024-05-09T03:28:02.282Z,6.90
2024-05-09T03:30:38.865Z,6.80
2024-05-09T03:33:10.867Z,5.80
2024-05-09T03:35:38.646Z,5.90
2024-05-09T03:38:06.261Z,7.40
2024-05-09T03:40:33.902Z,6.00
2024-05-09T03:43:01.419Z,6.90
2024-05-09T03:45:29.177Z,5.70
2024-05-09T03:47:57.074Z,7.00
2024-05-09T03:50:30.294Z,9.10
2024-05-09T03:53:02.089Z,5.70
2024-05-09T03:55:30.750Z,7.10
2024-05-09T03:57:58.518Z,6.50
2024-05-09T04:00:34.631Z,6.20
2024-05-09T04:03:08.554Z,5.70
2024-05-09T04:05:43.699Z,6.20
2024-05-09T04:08:14.307Z,7.40
2024-05-09T04:10:41.875Z,7.30
2024-05-09T04:13:10.068Z,6.40
2024-05-09T04:15:38.036Z,6.70
2024-05-09T04:18:05.810Z,6.60
2024-05-09T04:20:38.643Z,6.70
2024-05-09T04:23:13.469Z,6.50
2024-05-09T04:25:42.763Z,6.50
2024-05-09T04:28:10.440Z,6.70
2024-05-09T04:30:40.681Z,6.50
2024-05-09T04:33:11.834Z,6.80
2024-05-09T04:35:44.713Z,7.20
2024-05-09T04:38:14.423Z,6.80
2024-05-09T04:40:42.854Z,6.10
2024-05-09T04:43:14.260Z,6.50
2024-05-09T04:45:41.915Z,5.90
2024-05-09T04:48:09.691Z,6.40
2024-05-09T04:53:55.879Z,7.70
2024-05-09T04:56:22.254Z,6.40
2024-05-09T04:58:48.944Z,6.50
2024-05-09T05:01:16.208Z,5.90
2024-05-09T05:03:42.901Z,6.00
2024-05-09T05:06:09.566Z,6.60
2024-05-09T05:08:37.121Z,7.60
2024-05-09T05:11:03.796Z,6.80
2024-05-09T05:13:35.592Z,8.00
2024-05-09T05:16:04.260Z,7.80
2024-05-09T05:18:30.766Z,7.70
2024-05-09T05:20:57.775Z,7.50
2024-05-09T05:23:24.469Z,8.80
2024-05-09T05:25:54.253Z,6.30
2024-05-09T05:28:21.152Z,6.00
2024-05-09T05:30:47.568Z,6.80
2024-05-09T05:33:15.277Z,6.90
2024-05-09T05:35:42.313Z,7.20
2024-05-09T05:38:09.205Z,6.30
2024-05-09T05:40:38.153Z,7.60
2024-05-09T05:43:05.823Z,8.10
2024-05-09T05:45:32.562Z,7.00
2024-05-09T05:47:59.531Z,6.70
2024-05-09T05:50:32.548Z,7.30
2024-05-09T05:53:02.746Z,10.60
2024-05-09T05:55:29.238Z,9.40
2024-05-09T05:57:55.653Z,7.90
2024-05-09T06:00:29.545Z,8.50
2024-05-09T06:03:02.169Z,8.40
2024-05-09T06:05:28.927Z,8.40
2024-05-09T06:07:55.500Z,8.70
2024-05-09T06:10:26.292Z,7.80
2024-05-09T06:13:01.329Z,7.00
2024-05-09T06:15:27.842Z,6.50
2024-05-09T06:17:54.478Z,6.50
2024-05-09T06:20:27.736Z,6.00
2024-05-09T06:23:02.356Z,5.60
2024-05-09T06:25:28.830Z,6.20
2024-05-09T06:27:55.215Z,5.80
2024-05-09T06:30:29.901Z,6.00
2024-05-09T06:33:04.473Z,5.60
2024-05-09T06:35:31.802Z,5.80
2024-05-09T06:37:58.424Z,5.20
2024-05-09T06:40:29.470Z,4.80
2024-05-09T06:43:01.935Z,4.80
2024-05-09T06:45:28.330Z,4.90
2024-05-09T06:47:54.840Z,4.80
2024-05-09T06:50:24.310Z,5.00
2024-05-09T06:52:54.475Z,4.30
2024-05-09T06:55:20.934Z,4.50
2024-05-09T06:57:47.483Z,4.90
2024-05-09T07:00:22.694Z,4.20
2024-05-09T07:02:56.883Z,3.60
2024-05-09T07:05:23.906Z,4.20
2024-05-09T07:07:50.429Z,4.00
2024-05-09T07:10:25.484Z,3.60
2024-05-09T07:12:58.976Z,2.80
2024-05-09T07:15:25.444Z,2.90
2024-05-09T07:17:52.289Z,3.20
2024-05-09T07:20:27.140Z,3.30
2024-05-09T07:22:58.716Z,2.80
2024-05-09T07:25:25.221Z,3.20
2024-05-09T07:27:51.655Z,2.80
2024-05-09T07:30:26.980Z,3.10
2024-05-09T07:32:57.386Z,2.80
2024-05-09T07:35:24.106Z,2.40
2024-05-09T07:37:50.884Z,3.00
2024-05-09T07:40:25.001Z,2.70
2024-05-09T07:42:59.484Z,2.90
2024-05-09T07:45:43.301Z,2.40
2024-05-09T07:49:44.551Z,2.60
2024-05-09T07:53:00.844Z,2.70
2024-05-09T07:53:49.171Z,3.00
2024-05-09T07:56:21.250Z,2.10
2024-05-09T07:58:49.651Z,2.20
2024-05-09T08:01:16.275Z,2.10
2024-05-09T08:03:42.955Z,2.50
2024-05-09T08:06:09.562Z,2.10
2024-05-09T08:08:36.007Z,2.20
2024-05-09T08:11:02.496Z,2.50
2024-05-09T08:13:29.040Z,2.20
2024-05-09T08:15:55.614Z,2.40
2024-05-09T08:18:22.243Z,2.40
2024-05-09T08:20:51.727Z,2.00
2024-05-09T08:23:18.233Z,3.60
2024-05-09T08:25:44.700Z,2.70
2024-05-09T08:28:11.363Z,2.60
2024-05-09T08:30:38.553Z,2.00
2024-05-09T08:33:06.304Z,1.90
2024-05-09T08:35:34.066Z,2.10
2024-05-09T08:38:04.832Z,2.50
2024-05-09T08:40:35.302Z,2.40
2024-05-09T08:43:11.959Z,2.30
2024-05-09T08:45:41.499Z,1.80
2024-05-09T08:48:08.148Z,1.80
2024-05-09T08:50:38.922Z,2.10
2024-05-09T08:53:06.913Z,2.10
2024-05-09T08:55:35.875Z,1.90
2024-05-09T08:58:04.418Z,2.00
2024-05-09T09:00:36.866Z,3.10
2024-05-09T09:03:06.154Z,2.10
2024-05-09T09:05:34.572Z,2.30
2024-05-09T09:08:03.751Z,1.80
2024-05-09T09:10:32.367Z,2.10
2024-05-09T09:13:08.427Z,2.50
2024-05-09T09:15:45.007Z,2.00
2024-05-09T09:18:13.069Z,3.10
2024-05-09T09:20:39.604Z,3.10
2024-05-09T09:23:07.060Z,2.90
2024-05-09T09:25:33.440Z,3.70
2024-05-09T09:28:00.076Z,2.40
2024-05-09T09:30:34.913Z,2.20
2024-05-09T09:33:05.270Z,2.40
2024-05-09T09:35:32.377Z,2.30
2024-05-09T09:38:01.646Z,3.00
2024-05-09T09:40:39.037Z,3.20
2024-05-09T09:43:12.438Z,2.80
2024-05-09T09:45:39.420Z,2.90
2024-05-09T09:48:07.425Z,2.40
2024-05-09T09:50:35.489Z,2.60
2024-05-09T09:53:03.216Z,2.50
2024-05-09T09:55:31.742Z,2.20
2024-05-09T09:57:59.059Z,2.60
2024-05-09T10:00:32.061Z,2.70
2024-05-09T10:03:00.429Z,2.50
2024-05-09T10:05:27.634Z,2.60
2024-05-09T10:07:54.745Z,2.90
2024-05-09T10:10:31.500Z,2.40
2024-05-09T10:13:06.051Z,2.20
2024-05-09T10:16:02.524Z,2.20
2024-05-09T10:18:35.350Z,2.40
2024-05-09T10:21:01.930Z,2.10
2024-05-09T10:23:29.454Z,2.20
2024-05-09T10:25:59.161Z,2.70
2024-05-09T10:28:26.419Z,2.80
2024-05-09T10:31:01.969Z,2.10
2024-05-09T10:33:35.505Z,2.40
2024-05-09T10:36:02.676Z,1.80
2024-05-09T10:38:29.566Z,2.50
2024-05-09T10:40:56.225Z,2.10
2024-05-09T10:43:22.952Z,2.60
2024-05-09T10:45:49.555Z,2.30
2024-05-09T10:48:16.414Z,2.60
2024-05-09T10:50:45.203Z,2.40
2024-05-09T10:53:11.656Z,2.30
2024-05-09T10:55:38.136Z,2.70
2024-05-09T10:58:04.650Z,2.80
2024-05-09T11:00:36.203Z,2.80
2024-05-09T11:03:03.446Z,2.60
2024-05-09T11:05:30.221Z,2.50
2024-05-09T11:07:56.790Z,3.00
2024-05-09T11:10:27.957Z,2.90
2024-05-09T11:13:00.520Z,3.30
2024-05-09T11:15:36.946Z,2.60
2024-05-09T11:18:03.933Z,2.50
2024-05-09T11:20:37.183Z,2.60
2024-05-09T11:23:04.627Z,2.40
2024-05-09T11:25:32.497Z,2.60
2024-05-09T11:27:59.853Z,3.20
2024-05-09T11:30:31.933Z,2.70
2024-05-09T11:32:59.220Z,2.80
2024-05-09T11:35:26.366Z,2.20
2024-05-09T11:37:52.775Z,2.50
2024-05-09T11:40:25.309Z,2.60
2024-05-09T11:42:55.184Z,2.30
2024-05-09T11:45:21.835Z,2.70
2024-05-09T11:47:48.575Z,2.40
2024-05-09T11:50:22.559Z,2.30
2024-05-09T11:52:55.902Z,2.70
2024-05-09T11:55:24.566Z,3.00
2024-05-09T11:57:53.022Z,3.80
2024-05-09T12:00:29.074Z,2.40
2024-05-09T12:03:03.805Z,2.90
2024-05-09T12:05:30.702Z,3.20
2024-05-09T12:07:57.329Z,2.90
2024-05-09T12:10:32.857Z,2.70
2024-05-09T12:13:02.355Z,3.00
2024-05-09T12:15:29.154Z,2.60
2024-05-09T12:17:58.206Z,2.60
2024-05-09T12:20:35.131Z,3.30
2024-05-09T12:23:04.751Z,3.20
2024-05-09T12:25:31.140Z,2.80
2024-05-09T12:27:57.678Z,2.80
2024-05-09T12:30:33.103Z,2.60
2024-05-09T12:33:05.143Z,3.10
2024-05-09T12:35:31.899Z,3.40
2024-05-09T12:37:58.394Z,3.00
2024-05-09T12:40:34.216Z,3.60
2024-05-09T12:43:04.335Z,3.00
2024-05-09T12:45:31.236Z,3.70
2024-05-09T12:47:58.156Z,3.50
2024-05-09T12:50:31.287Z,3.60
2024-05-09T12:53:00.170Z,3.30
2024-05-09T12:55:28.083Z,3.60
2024-05-09T12:57:55.036Z,3.40
2024-05-09T13:00:28.163Z,3.10
2024-05-09T13:02:59.987Z,3.30
2024-05-09T13:05:26.858Z,2.90
2024-05-09T13:07:53.410Z,3.60
2024-05-09T13:10:28.858Z,3.70
2024-05-09T13:12:58.913Z,3.30
2024-05-09T13:15:25.336Z,2.90
2024-05-09T13:17:51.894Z,3.50
2024-05-09T13:20:26.178Z,3.40
2024-05-09T13:23:00.223Z,3.80
2024-05-09T13:25:26.702Z,3.30
2024-05-09T13:27:53.136Z,4.00
2024-05-09T13:30:28.770Z,4.00
2024-05-09T13:33:01.944Z,3.20
2024-05-09T13:35:28.679Z,3.40
2024-05-09T13:37:55.278Z,3.30
2024-05-09T13:40:29.999Z,3.60
2024-05-09T13:43:01.007Z,3.20
2024-05-09T13:45:27.662Z,3.60
2024-05-09T13:47:54.754Z,3.40
2024-05-09T13:50:30.912Z,3.90
2024-05-09T13:53:01.815Z,3.60
2024-05-09T13:55:29.098Z,3.20
2024-05-09T13:57:56.264Z,3.20
2024-05-09T14:00:37.597Z,3.30
2024-05-09T14:03:10.152Z,3.40
2024-05-09T14:05:37.558Z,3.40
2024-05-09T14:08:04.799Z,3.30
2024-05-09T14:10:32.584Z,3.30
2024-05-09T14:13:00.071Z,3.60
2024-05-09T14:15:27.157Z,3.10
2024-05-09T14:17:54.415Z,3.50
2024-05-09T14:20:30.633Z,3.30
2024-05-09T14:22:59.513Z,2.80
2024-05-09T14:25:30.995Z,3.50
2024-05-09T14:27:58.023Z,3.50
2024-05-09T14:30:31.229Z,3.70
2024-05-09T14:33:03.645Z,3.10
2024-05-09T14:35:30.393Z,3.30
2024-05-09T14:37:56.943Z,3.10
2024-05-09T14:40:36.899Z,3.30
2024-05-09T14:43:09.083Z,3.50
2024-05-09T14:45:35.836Z,3.90
2024-05-09T14:48:03.144Z,3.10
2024-05-09T14:53:41.121Z,2.90
2024-05-09T14:56:09.135Z,3.80
2024-05-09T14:58:37.207Z,3.00
2024-05-09T15:01:05.380Z,3.60
2024-05-09T15:03:33.288Z,3.50
2024-05-09T15:06:01.348Z,3.20
2024-05-09T15:08:29.678Z,3.30
2024-05-09T15:10:57.703Z,2.70
2024-05-09T15:13:26.038Z,3.40
2024-05-09T15:15:54.800Z,3.20
2024-05-09T15:18:22.829Z,3.10
2024-05-09T15:20:51.055Z,3.20
2024-05-09T15:23:19.827Z,3.10
2024-05-09T15:25:48.031Z,3.20
2024-05-09T15:28:16.037Z,3.20
2024-05-09T15:30:46.230Z,10.10
2024-05-09T15:33:14.898Z,4.00
2024-05-09T15:35:42.759Z,3.40
2024-05-09T15:38:10.509Z,3.50
2024-05-09T15:49:37.700Z,3.60
2024-05-09T15:52:05.834Z,3.40
2024-05-09T15:54:33.661Z,3.30
2024-05-09T15:57:01.553Z,3.00
2024-05-09T15:59:29.189Z,2.90
2024-05-09T16:01:57.072Z,2.60
2024-05-09T16:04:25.258Z,3.20
2024-05-09T16:06:53.127Z,3.20
2024-05-09T16:09:21.189Z,2.60
2024-05-09T16:11:49.028Z,4.20
2024-05-09T16:14:17.037Z,3.60
2024-05-09T16:16:44.882Z,3.70
2024-05-09T16:19:12.689Z,3.50
2024-05-09T16:21:40.471Z,3.80
2024-05-09T16:24:08.148Z,3.30
2024-05-09T16:26:35.838Z,4.00
2024-05-09T16:29:04.021Z,5.10
2024-05-09T16:31:32.024Z,2.80
2024-05-09T16:34:00.066Z,3.70
2024-05-09T16:36:27.947Z,3.80
2024-05-09T16:38:55.672Z,3.40
2024-05-09T16:41:23.382Z,3.00
2024-05-09T16:43:51.402Z,2.60
2024-05-09T16:46:19.356Z,2.70
2024-05-09T16:48:47.373Z,2.60
2024-05-09T16:53:29.069Z,3.20
2024-05-09T16:55:57.094Z,3.40
2024-05-09T16:58:26.491Z,3.50
2024-05-09T17:00:54.363Z,2.50
2024-05-09T17:03:23.542Z,3.10
2024-05-09T17:05:51.756Z,3.50
2024-05-09T17:08:19.835Z,3.10
2024-05-09T17:10:48.949Z,3.00
2024-05-09T17:18:54.637Z,2.80
2024-05-09T17:21:22.513Z,2.90
2024-05-09T17:23:54.316Z,3.00
2024-05-09T17:26:22.407Z,3.00
2024-05-09T17:28:50.248Z,2.90
2024-05-09T17:31:18.073Z,3.80
2024-05-09T17:33:46.091Z,4.30
2024-05-09T17:36:14.010Z,12.50
2024-05-09T17:38:41.520Z,5.30
2024-05-09T17:41:09.097Z,3.70
2024-05-09T17:43:36.920Z,3.50
2024-05-09T17:46:06.870Z,3.90
2024-05-09T17:48:34.693Z,8.50
2024-05-09T17:51:02.465Z,7.30
2024-05-09T17:53:30.031Z,5.40
2024-05-09T17:56:00.054Z,4.00
2024-05-09T17:58:27.941Z,3.50
2024-05-09T18:00:55.805Z,3.40
2024-05-09T18:03:23.787Z,3.40
2024-05-09T18:05:51.759Z,3.70
2024-05-09T18:08:19.478Z,3.50
2024-05-09T18:10:47.177Z,3.30
2024-05-09T18:13:14.796Z,4.10
2024-05-09T18:15:42.543Z,4.10
2024-05-09T18:18:11.007Z,3.90
2024-05-09T18:20:43.933Z,9.00
2024-05-09T18:23:16.090Z,5.20
2024-05-09T18:25:46.015Z,4.00
2024-05-09T18:28:14.073Z,4.40
2024-05-09T18:30:41.886Z,10.40
2024-05-09T18:33:10.348Z,62.10
2024-05-09T18:35:38.938Z,30.50
2024-05-09T18:38:06.656Z,29.70
2024-05-09T18:40:36.966Z,16.30
2024-05-09T18:43:07.899Z,9.00
2024-05-09T18:45:38.133Z,6.50
2024-05-09T18:48:08.065Z,19.20
2024-05-09T18:50:39.594Z,23.90
2024-05-09T18:53:10.350Z,30.30
2024-05-09T18:55:39.035Z,9.20
2024-05-09T18:58:07.278Z,6.00
2024-05-09T19:00:38.468Z,9.90
2024-05-09T19:03:11.598Z,6.10
2024-05-09T19:05:42.785Z,4.20
2024-05-09T19:08:11.346Z,3.90
2024-05-09T19:10:39.439Z,3.60
2024-05-09T19:13:11.622Z,3.60
2024-05-09T19:15:41.965Z,3.50
2024-05-09T19:18:11.601Z,3.90
2024-05-09T19:20:39.651Z,4.10
2024-05-09T19:23:07.743Z,3.80
2024-05-09T19:25:36.007Z,7.40
2024-05-09T19:28:04.266Z,8.80
2024-05-09T19:30:38.945Z,15.60
2024-05-09T19:33:12.018Z,11.80
2024-05-09T19:35:41.056Z,6.80
2024-05-09T19:38:08.590Z,4.90
2024-05-09T19:40:36.581Z,5.90
2024-05-09T19:43:05.469Z,4.80
2024-05-09T19:45:35.082Z,4.80
2024-05-09T19:48:06.945Z,4.70
2024-05-09T19:53:43.999Z,5.10
2024-05-09T19:56:12.273Z,4.10
2024-05-09T19:58:39.850Z,3.90
2024-05-09T20:01:07.580Z,3.80
2024-05-09T20:03:38.229Z,4.70
2024-05-09T20:19:44.793Z,6.10
2024-05-09T20:22:11.895Z,5.40
2024-05-09T20:24:38.771Z,5.80
2024-05-09T20:27:05.211Z,5.60
2024-05-09T20:29:31.645Z,5.00
2024-05-09T20:31:58.119Z,5.60
2024-05-09T20:34:24.667Z,5.40
2024-05-09T20:36:51.377Z,6.20
2024-05-09T20:39:23.530Z,6.50
2024-05-09T20:41:50.031Z,6.60
2024-05-09T20:44:17.631Z,8.00
2024-05-09T20:46:44.673Z,8.80
2024-05-09T20:49:12.062Z,10.30
2024-05-09T20:51:38.690Z,9.60
2024-05-09T20:54:05.107Z,8.60
2024-05-09T20:56:31.555Z,8.80
2024-05-09T20:58:57.946Z,7.60
2024-05-09T21:01:24.467Z,7.20
2024-05-09T21:03:51.373Z,7.30
2024-05-09T21:06:18.052Z,7.90
2024-05-09T21:08:44.556Z,7.70
2024-05-09T21:11:11.041Z,7.70
2024-05-09T21:13:37.466Z,6.80
2024-05-09T21:16:04.473Z,6.90
2024-05-09T21:18:31.593Z,7.10
2024-05-09T21:20:58.175Z,7.20
2024-05-09T21:23:24.630Z,7.10
2024-05-09T21:25:51.164Z,7.30
2024-05-09T21:28:17.767Z,8.00
2024-05-09T21:30:44.501Z,6.90
2024-05-09T21:33:12.879Z,7.60
2024-05-09T21:35:41.093Z,8.00
2024-05-09T21:38:08.000Z,8.20
2024-05-09T21:40:36.430Z,8.40
2024-05-09T21:43:04.815Z,8.30
2024-05-09T21:45:31.934Z,8.00
2024-05-09T21:47:58.865Z,8.50
2024-05-09T21:50:32.373Z,8.70
2024-05-09T21:53:05.591Z,7.00
2024-05-09T21:55:32.223Z,7.50
2024-05-09T21:57:58.739Z,8.10
2024-05-09T22:00:32.889Z,7.30
2024-05-09T22:03:03.904Z,7.30
2024-05-09T22:05:30.818Z,6.90
2024-05-09T22:07:57.495Z,8.20
2024-05-09T22:10:30.572Z,7.30
2024-05-09T22:13:00.784Z,7.50
2024-05-09T22:15:27.446Z,7.30
2024-05-09T22:17:54.648Z,7.80
2024-05-09T22:20:28.838Z,7.20
2024-05-09T22:23:03.344Z,7.90
2024-05-09T22:25:30.883Z,7.50
2024-05-09T22:27:58.190Z,8.00
2024-05-09T22:30:33.162Z,8.10
2024-05-09T22:33:03.893Z,7.90
2024-05-09T22:35:30.447Z,7.60
2024-05-09T22:37:56.849Z,8.10
2024-05-09T22:40:32.225Z,7.20
2024-05-09T22:43:05.483Z,7.40
2024-05-09T22:45:32.205Z,7.80
2024-05-09T22:47:59.177Z,7.40
2024-05-09T22:50:27.218Z,7.60
2024-05-09T22:52:59.046Z,8.40
2024-05-09T22:55:25.540Z,8.10
2024-05-09T22:57:51.975Z,7.50
2024-05-09T23:00:26.169Z,8.10
2024-05-09T23:02:58.351Z,7.70
2024-05-09T23:05:24.944Z,7.60
2024-05-09T23:07:51.601Z,7.10
2024-05-09T23:10:25.137Z,7.50
2024-05-09T23:12:58.511Z,7.50
2024-05-09T23:15:25.053Z,7.40
2024-05-09T23:17:51.671Z,7.50
2024-05-09T23:20:29.609Z,7.20
2024-05-09T23:23:03.806Z,6.30
2024-05-09T23:25:30.233Z,6.70
2024-05-09T23:27:57.967Z,7.00
2024-05-09T23:30:33.606Z,7.10
2024-05-09T23:33:05.226Z,6.40
2024-05-09T23:35:31.815Z,6.80
2024-05-09T23:37:58.326Z,6.50
2024-05-09T23:40:36.386Z,6.40
2024-05-09T23:43:06.339Z,6.10
2024-05-09T23:45:33.272Z,6.30
2024-05-09T23:48:00.139Z,6.30
2024-05-09T23:50:33.922Z,7.00
2024-05-09T23:53:03.520Z,6.70
2024-05-09T23:55:30.636Z,7.50
2024-05-09T23:57:57.034Z,7.00
